createdAt,value
2022-09-09T00:02:25.879Z,101569.31
2022-09-09T00:05:43.158Z,101581.97
2022-09-09T00:08:25.595Z,101579.09
2022-09-09T00:11:11.763Z,101574.63
2022-09-09T00:14:15.723Z,101588.56
2022-09-09T00:17:24.599Z,101587.44
2022-09-09T00:20:28.730Z,101580.75
2022-09-09T00:23:52.346Z,101577.38
2022-09-09T00:26:53.994Z,101584.03
2022-09-09T00:30:04.736Z,101575.94
2022-09-09T00:33:20.319Z,101572.81
2022-09-09T00:42:49.284Z,101554.25
2022-09-09T00:46:10.367Z,101558.28
2022-09-09T00:49:19.449Z,101550.41
2022-09-09T00:56:06.770Z,101551.78
2022-09-09T00:59:24.512Z,101554.81
2022-09-09T01:02:52.814Z,101546.41
2022-09-09T01:05:44.737Z,101549.94
2022-09-09T01:11:53.009Z,101545.81
2022-09-09T01:14:44.593Z,101556.88
2022-09-09T01:17:58.387Z,101561.81
2022-09-09T01:24:39.341Z,101558.88
2022-09-09T01:27:37.886Z,101535.25
2022-09-09T01:30:15.725Z,101533.38
2022-09-09T01:33:20.642Z,101530.25
2022-09-09T01:36:14.638Z,101525.22
2022-09-09T01:42:36.921Z,101512.88
2022-09-09T01:45:29.438Z,101520.72
2022-09-09T01:48:10.548Z,101522.56
2022-09-09T01:50:39.385Z,101521.22
2022-09-09T01:53:23.214Z,101508.16
2022-09-09T01:56:08.285Z,101503.16
2022-09-09T02:02:37.649Z,101504.34
2022-09-09T02:06:13.302Z,101512.44
2022-09-09T02:09:03.011Z,101491.94
2022-09-09T02:11:52.037Z,101512.44
2022-09-09T02:17:37.831Z,101508.66
2022-09-09T02:20:14.489Z,101514.63
2022-09-09T02:22:57.266Z,101505.69
2022-09-09T02:26:00.141Z,101509.56
2022-09-09T02:33:37.588Z,101496.91
2022-09-09T02:36:34.172Z,101504.28
2022-09-09T02:39:31.354Z,101506.22
2022-09-09T02:42:06.673Z,101505.03
2022-09-09T02:44:47.177Z,101486.28
2022-09-09T02:48:12.224Z,101507.31
2022-09-09T02:51:12.032Z,101507.31
2022-09-09T02:54:02.519Z,101502.75
2022-09-09T02:56:48.022Z,101512.28
2022-09-09T02:59:49.431Z,101516.16
2022-09-09T03:06:03.385Z,101508.06
2022-09-09T03:08:57.547Z,101511.44
2022-09-09T03:11:34.158Z,101511.09
2022-09-09T03:14:40.208Z,101523.69
2022-09-09T03:17:32.591Z,101516.06
2022-09-09T03:20:10.018Z,101512.44
2022-09-09T03:22:46.657Z,101519.59
2022-09-09T03:25:20.645Z,101498.25
2022-09-09T03:28:03.607Z,101506.38
2022-09-09T03:30:40.321Z,101505.28
2022-09-09T03:33:14.642Z,101501.78
2022-09-09T03:36:00.772Z,101512.78
2022-09-09T03:38:37.482Z,101507.47
2022-09-09T03:41:16.006Z,101523.06
2022-09-09T03:43:44.520Z,101511.84
2022-09-09T03:46:54.732Z,101521.13
2022-09-09T03:52:24.035Z,101504.69
2022-09-09T03:54:55.622Z,101500.81
2022-09-09T03:57:38.688Z,101497.53
2022-09-09T04:00:16.106Z,101503.53
2022-09-09T04:03:01.110Z,101488.91
2022-09-09T04:06:20.140Z,101520.91
2022-09-09T04:09:12.447Z,101516.34
2022-09-09T04:11:52.023Z,101496.66
2022-09-09T04:14:30.549Z,101497.63
2022-09-09T04:17:08.753Z,101503.78
2022-09-09T04:19:37.059Z,101507.91
2022-09-09T04:24:58.462Z,101490.41
2022-09-09T04:31:00.345Z,101505.25
2022-09-09T04:33:37.022Z,101509.03
2022-09-09T04:36:45.995Z,101516.03
2022-09-09T04:39:19.886Z,101508.13
2022-09-09T04:45:27.763Z,101519.34
2022-09-09T04:48:12.987Z,101505.94
2022-09-09T04:51:29.811Z,101519.91
2022-09-09T04:54:07.568Z,101512.00
2022-09-09T04:57:01.459Z,101516.56
2022-09-09T04:59:50.710Z,101507.28
2022-09-09T05:02:31.938Z,101504.63
2022-09-09T05:05:07.241Z,101501.25
2022-09-09T05:07:55.180Z,101514.06
2022-09-09T05:10:22.810Z,101507.72
2022-09-09T05:12:59.139Z,101496.47
2022-09-09T05:15:41.474Z,101517.16
2022-09-09T05:18:11.264Z,101516.91
2022-09-09T05:20:44.380Z,101516.53
2022-09-09T05:23:34.780Z,101519.31
2022-09-09T05:26:19.129Z,101520.78
2022-09-09T05:28:51.731Z,101506.31
2022-09-09T05:31:27.433Z,101510.78
2022-09-09T05:33:55.395Z,101507.91
2022-09-09T05:36:35.135Z,101508.00
2022-09-09T05:39:13.853Z,101500.41
2022-09-09T05:44:35.384Z,101488.41
2022-09-09T05:47:11.553Z,101505.00
2022-09-09T05:50:07.358Z,101524.81
2022-09-09T06:14:46.372Z,101529.19
2022-09-09T06:17:32.107Z,101526.66
2022-09-09T06:21:04.520Z,101544.78
2022-09-09T06:28:11.938Z,101550.22
2022-09-09T19:12:27.676Z,101395.66
2022-09-09T23:54:20.918Z,101476.34
2022-09-09T23:56:58.847Z,101494.00
2022-09-09T23:59:40.962Z,101493.16
